Time;durP1;ratioP1;P1;durP2;ratioP2;P2;SDS_P1;SDS_P2;PMS_P1;PMS_P2;Temp;Humidity;BMP_temperature;BMP_pressure;BME280_temperature;BME280_humidity;BME280_pressure;Samples;Min_cycle;Max_cycle;Signal;HPM_P1;HPM_P2
2022/08/13 00:01:27;;;;;;;4.15;2.30;;;;;;;;;;5035044;28;20057;-88
2022/08/13 00:04:00;;;;;;;2.03;1.90;;;;;;;;;;5035779;28;20080;-88
2022/08/13 00:09:04;;;;;;;;;;;;;;;;;;5052282;28;20046;-86
2022/08/13 00:14:31;;;;;;;2.28;2.17;;;;;;;;;;5051350;28;20132;-86
2022/08/13 00:17:06;;;;;;;2.28;2.08;;;;;;;;;;5033208;28;20061;-85
2022/08/13 00:19:43;;;;;;;2.47;2.28;;;;;;;;;;5034152;28;20053;-87
2022/08/13 00:22:22;;;;;;;2.58;2.47;;;;;;;;;;5035269;28;20076;-87
2022/08/13 00:24:58;;;;;;;2.05;1.90;;;;;;;;;;5034226;28;20088;-87
2022/08/13 00:27:26;;;;;;;3.10;1.95;;;;;;;;;;5031939;28;20096;-86
2022/08/13 00:30:16;;;;;;;2.53;2.33;;;;;;;;;;5032685;28;20057;-85
2022/08/13 00:32:54;;;;;;;3.63;2.38;;;;;;;;;;5021195;28;20057;-86
2022/08/13 00:35:23;;;;;;;4.85;2.20;;;;;;;;;;5034565;28;20081;-88
2022/08/13 00:38:05;;;;;;;4.55;2.30;;;;;;;;;;5017265;28;20053;-88
2022/08/13 00:40:32;;;;;;;2.55;2.35;;;;;;;;;;5015310;28;20049;-87
2022/08/13 00:43:04;;;;;;;2.38;2.17;;;;;;;;;;5015100;28;20053;-87
2022/08/13 00:45:32;;;;;;;3.35;2.25;;;;;;;;;;5015285;28;20384;-87
2022/08/13 00:50:50;;;;;;;2.30;2.20;;;;;;;;;;5032695;28;20460;-88
2022/08/13 00:53:19;;;;;;;4.13;2.20;;;;;;;;;;5015187;28;20060;-88
2022/08/13 00:55:50;;;;;;;5.88;3.08;;;;;;;;;;5015726;28;20073;-86
2022/08/13 00:58:18;;;;;;;2.78;2.35;;;;;;;;;;5015081;28;20451;-87
2022/08/13 01:00:53;;;;;;;2.60;2.50;;;;;;;;;;5015266;28;20057;-87
2022/08/13 01:03:20;;;;;;;2.50;2.38;;;;;;;;;;5014893;28;20049;-87
2022/08/13 01:06:08;;;;;;;2.53;2.33;;;;;;;;;;5017843;28;20052;-87
2022/08/13 01:08:38;;;;;;;3.85;2.40;;;;;;;;;;5014885;28;20053;-87
2022/08/13 01:11:13;;;;;;;3.33;3.10;;;;;;;;;;5015306;28;20050;-87
2022/08/13 01:13:51;;;;;;;2.78;2.58;;;;;;;;;;5020926;28;20045;-87
2022/08/13 01:16:19;;;;;;;5.55;2.80;;;;;;;;;;5018751;28;20111;-87
2022/08/13 01:18:52;;;;;;;3.53;2.60;;;;;;;;;;5019238;28;20045;-88
2022/08/13 01:21:21;;;;;;;2.80;2.60;;;;;;;;;;5018579;28;20045;-87
2022/08/13 01:23:49;;;;;;;3.20;2.53;;;;;;;;;;5018617;28;20053;-88
2022/08/13 01:26:32;;;;;;;4.53;3.00;;;;;;;;;;5014686;28;20049;-88
2022/08/13 01:29:06;;;;;;;3.15;2.85;;;;;;;;;;5017219;28;20042;-88
2022/08/13 01:31:40;;;;;;;3.40;3.10;;;;;;;;;;5018830;28;20049;-87
2022/08/13 01:34:08;;;;;;;5.80;3.20;;;;;;;;;;5035734;28;20095;-86
2022/08/13 01:36:52;;;;;;;3.55;3.05;;;;;;;;;;5020421;28;20103;-86
2022/08/13 01:39:22;;;;;;;3.88;2.65;;;;;;;;;;5020602;28;20054;-88
2022/08/13 01:42:02;;;;;;;4.47;3.10;;;;;;;;;;5022869;28;20060;-87
2022/08/13 01:44:32;;;;;;;6.30;2.80;;;;;;;;;;5019516;28;20053;-88
2022/08/13 01:52:59;;;;;;;5.65;2.85;;;;;;;;;;5039342;28;20053;-86
2022/08/13 01:55:29;;;;;;;3.17;2.90;;;;;;;;;;5023261;28;20049;-86
2022/08/13 01:58:18;;;;;;;4.13;3.00;;;;;;;;;;5027117;28;20569;-86
2022/08/13 02:00:47;;;;;;;7.47;3.33;;;;;;;;;;5023892;28;20049;-86
2022/08/13 02:03:17;;;;;;;6.97;3.00;;;;;;;;;;5024104;28;20057;-88
2022/08/13 02:05:47;;;;;;;2.88;2.78;;;;;;;;;;5024278;28;20045;-85
2022/08/13 02:08:39;;;;;;;3.58;2.83;;;;;;;;;;5042398;28;20511;-86
2022/08/13 02:11:07;;;;;;;3.25;2.97;;;;;;;;;;5024780;28;20045;-86
2022/08/13 02:13:34;;;;;;;4.18;2.95;;;;;;;;;;5025471;28;20053;-86
2022/08/13 02:16:04;;;;;;;3.30;3.10;;;;;;;;;;5025515;28;20049;-86
2022/08/13 02:18:32;;;;;;;3.25;2.95;;;;;;;;;;5025070;28;20050;-86
2022/08/13 02:21:04;;;;;;;4.40;3.10;;;;;;;;;;5025660;28;20057;-85
2022/08/13 02:23:51;;;;;;;3.53;3.30;;;;;;;;;;5026971;28;20088;-87
2022/08/13 02:26:29;;;;;;;3.28;2.97;;;;;;;;;;5029100;28;20057;-87
2022/08/13 02:28:58;;;;;;;3.35;3.15;;;;;;;;;;5028286;28;20059;-88
2022/08/13 02:31:28;;;;;;;3.30;3.00;;;;;;;;;;5027830;28;20061;-88
2022/08/13 02:34:15;;;;;;;3.40;3.20;;;;;;;;;;5028540;28;20487;-85
2022/08/13 02:36:49;;;;;;;3.30;3.00;;;;;;;;;;5025886;28;20041;-85
2022/08/13 02:39:36;;;;;;;3.58;3.28;;;;;;;;;;5028219;28;20049;-86
2022/08/13 02:42:10;;;;;;;3.38;3.20;;;;;;;;;;5026304;28;20510;-86
2022/08/13 02:44:47;;;;;;;3.47;3.20;;;;;;;;;;5042496;28;20105;-85
2022/08/13 02:47:24;;;;;;;3.70;3.50;;;;;;;;;;5021317;28;20057;-86
2022/08/13 02:50:10;;;;;;;3.63;3.33;;;;;;;;;;5024545;28;20111;-86
2022/08/13 02:52:38;;;;;;;4.10;3.80;;;;;;;;;;5021860;28;20469;-85
2022/08/13 02:55:24;;;;;;;6.88;3.63;;;;;;;;;;5025269;28;20426;-85
2022/08/13 02:57:54;;;;;;;3.92;3.63;;;;;;;;;;5022419;28;20433;-85
2022/08/13 03:00:21;;;;;;;4.53;3.33;;;;;;;;;;5021581;28;20052;-86
2022/08/13 03:02:57;;;;;;;3.88;3.45;;;;;;;;;;5039790;28;20055;-86
2022/08/13 03:05:30;;;;;;;3.78;3.40;;;;;;;;;;5040202;28;20053;-85
2022/08/13 03:08:18;;;;;;;3.92;3.58;;;;;;;;;;5024419;28;20088;-88
2022/08/13 03:11:05;;;;;;;6.22;3.92;;;;;;;;;;5037015;28;20140;-86
2022/08/13 03:13:36;;;;;;;6.45;4.20;;;;;;;;;;5016824;28;20057;-86
2022/08/13 03:16:12;;;;;;;3.67;3.33;;;;;;;;;;5017192;28;20052;-86
2022/08/13 03:18:40;;;;;;;3.88;3.67;;;;;;;;;;5016340;28;20052;-86
2022/08/13 03:21:21;;;;;;;3.92;3.70;;;;;;;;;;5018329;28;20072;-87
2022/08/13 03:24:20;;;;;;;5.15;4.10;;;;;;;;;;5019012;28;20050;-87
2022/08/13 03:26:58;;;;;;;8.25;4.15;;;;;;;;;;5017463;28;20530;-87
2022/08/13 03:29:25;;;;;;;4.30;3.90;;;;;;;;;;5016223;28;20053;-86
2022/08/13 03:32:13;;;;;;;4.85;3.90;;;;;;;;;;5018960;28;20052;-88
2022/08/13 03:34:41;;;;;;;4.20;3.80;;;;;;;;;;5016236;28;20049;-87
2022/08/13 03:37:10;;;;;;;5.68;4.10;;;;;;;;;;5033348;28;20053;-87
2022/08/13 03:39:40;;;;;;;5.13;4.05;;;;;;;;;;5016477;28;20462;-87
2022/08/13 03:42:10;;;;;;;4.50;4.05;;;;;;;;;;5015761;28;20128;-87
2022/08/13 03:44:45;;;;;;;4.28;4.00;;;;;;;;;;5017072;28;20052;-87
2022/08/13 03:47:13;;;;;;;4.97;4.28;;;;;;;;;;5016124;28;20049;-87
2022/08/13 03:50:01;;;;;;;4.63;4.10;;;;;;;;;;5019533;28;20049;-87
2022/08/13 03:52:30;;;;;;;6.25;4.15;;;;;;;;;;5015618;28;20511;-87
2022/08/13 03:55:09;;;;;;;4.78;4.38;;;;;;;;;;5016759;28;20053;-87
2022/08/13 03:57:41;;;;;;;5.50;4.68;;;;;;;;;;5032993;28;20430;-87
2022/08/13 04:00:29;;;;;;;7.45;4.35;;;;;;;;;;5033180;28;20050;-87
2022/08/13 04:02:57;;;;;;;4.15;3.85;;;;;;;;;;5015611;28;20567;-87
2022/08/13 04:05:25;;;;;;;4.60;4.20;;;;;;;;;;5015703;28;20049;-88
2022/08/13 04:08:12;;;;;;;9.43;5.20;;;;;;;;;;5018221;28;20053;-87
2022/08/13 04:10:41;;;;;;;7.50;6.75;;;;;;;;;;5015646;28;20077;-87
2022/08/13 04:13:20;;;;;;;9.48;7.97;;;;;;;;;;5017001;28;20107;-87
2022/08/13 04:16:08;;;;;;;7.43;6.72;;;;;;;;;;5032884;28;20453;-87
2022/08/13 04:18:36;;;;;;;5.47;5.00;;;;;;;;;;5015512;28;20453;-87
2022/08/13 04:21:05;;;;;;;5.15;4.40;;;;;;;;;;5015553;28;20049;-87
2022/08/13 04:23:34;;;;;;;7.15;4.63;;;;;;;;;;5015580;28;20075;-87
2022/08/13 04:26:03;;;;;;;9.07;4.88;;;;;;;;;;5017375;28;20049;-88
2022/08/13 04:28:31;;;;;;;5.20;4.60;;;;;;;;;;5027500;28;20049;-87
2022/08/13 04:31:00;;;;;;;4.97;4.57;;;;;;;;;;5032590;28;20053;-86
2022/08/13 04:33:33;;;;;;;4.88;4.57;;;;;;;;;;5036006;28;20049;-86
2022/08/13 04:36:39;;;;;;;5.13;4.70;;;;;;;;;;5050895;28;20053;-86
2022/08/13 04:39:06;;;;;;;5.15;4.63;;;;;;;;;;5032041;28;20049;-86
2022/08/13 04:42:11;;;;;;;6.50;6.00;;;;;;;;;;5031183;28;20057;-87
2022/08/13 04:45:00;;;;;;;7.38;5.95;;;;;;;;;;5031468;28;20057;-86
2022/08/13 04:47:35;;;;;;;6.00;5.50;;;;;;;;;;5015352;28;20049;-86
2022/08/13 04:50:05;;;;;;;6.32;5.70;;;;;;;;;;5034299;28;20053;-86
2022/08/13 04:52:37;;;;;;;5.70;4.97;;;;;;;;;;5035586;28;20569;-86
2022/08/13 04:55:06;;;;;;;5.57;4.97;;;;;;;;;;5028902;28;20053;-85
2022/08/13 04:57:41;;;;;;;5.82;5.25;;;;;;;;;;5026653;28;20091;-86
2022/08/13 05:00:34;;;;;;;6.15;5.40;;;;;;;;;;5028705;28;20045;-86
2022/08/13 05:03:19;;;;;;;7.97;5.45;;;;;;;;;;5024295;28;20058;-87
2022/08/13 05:05:52;;;;;;;6.28;5.25;;;;;;;;;;5024332;28;20414;-86
2022/08/13 05:08:19;;;;;;;6.03;5.43;;;;;;;;;;5024419;28;20056;-84
2022/08/13 05:10:48;;;;;;;5.50;5.00;;;;;;;;;;5021588;28;20054;-85
2022/08/13 05:13:28;;;;;;;6.40;5.55;;;;;;;;;;5021715;28;20140;-84
2022/08/13 05:16:10;;;;;;;6.22;5.65;;;;;;;;;;5023594;28;20140;-86
2022/08/13 05:18:42;;;;;;;6.82;6.20;;;;;;;;;;5020949;28;20052;-85
2022/08/13 05:21:11;;;;;;;8.45;6.25;;;;;;;;;;5038624;28;20049;-86
2022/08/13 05:23:44;;;;;;;7.25;6.07;;;;;;;;;;5023902;28;20132;-86
2022/08/13 05:26:31;;;;;;;7.13;5.80;;;;;;;;;;5023753;28;20108;-85
2022/08/13 05:29:19;;;;;;;8.45;6.50;;;;;;;;;;5024874;28;20103;-86
2022/08/13 05:31:46;;;;;;;9.23;5.78;;;;;;;;;;5021961;28;20044;-85
2022/08/13 05:34:25;;;;;;;5.82;4.78;;;;;;;;;;5025363;28;20050;-85
2022/08/13 05:36:53;;;;;;;6.15;4.57;;;;;;;;;;5023029;28;20099;-85
2022/08/13 05:39:41;;;;;;;6.97;4.60;;;;;;;;;;5027941;28;20406;-85
2022/08/13 05:42:15;;;;;;;5.15;4.20;;;;;;;;;;5024115;28;20049;-86
2022/08/13 05:44:47;;;;;;;4.28;3.90;;;;;;;;;;5021298;28;20049;-86
2022/08/13 05:47:15;;;;;;;4.75;4.25;;;;;;;;;;5024985;28;20058;-85
2022/08/13 05:49:43;;;;;;;4.40;3.78;;;;;;;;;;5024139;28;20087;-85
2022/08/13 05:52:25;;;;;;;4.90;3.83;;;;;;;;;;5025998;28;20053;-85
2022/08/13 05:55:07;;;;;;;4.20;3.80;;;;;;;;;;5042422;28;20049;-85
2022/08/13 05:57:54;;;;;;;4.97;3.78;;;;;;;;;;5027754;28;20081;-85
2022/08/13 06:06:15;;;;;;;14.23;4.50;;;;;;;;;;5044170;28;20076;-87
2022/08/13 06:08:49;;;;;;;16.85;4.40;;;;;;;;;;5026751;28;20112;-85
2022/08/13 06:11:17;;;;;;;12.15;3.92;;;;;;;;;;5024590;28;20053;-86
2022/08/13 06:14:04;;;;;;;13.73;4.00;;;;;;;;;;5028879;28;20664;-85
2022/08/13 06:16:34;;;;;;;12.40;3.50;;;;;;;;;;5028105;28;20076;-86
2022/08/13 06:19:24;;;;;;;5.65;2.88;;;;;;;;;;5027910;28;20108;-86
2022/08/13 06:21:56;;;;;;;10.00;2.80;;;;;;;;;;5020767;28;20072;-86
2022/08/13 06:24:27;;;;;;;14.63;4.10;;;;;;;;;;5021232;28;20072;-86
2022/08/13 06:27:04;;;;;;;13.98;4.95;;;;;;;;;;5020962;28;20153;-86
2022/08/13 06:29:41;;;;;;;15.73;4.13;;;;;;;;;;5039390;28;20507;-87
2022/08/13 06:32:19;;;;;;;16.02;4.78;;;;;;;;;;5022769;28;20049;-83
2022/08/13 06:35:06;;;;;;;18.15;4.60;;;;;;;;;;5025629;28;20124;-86
2022/08/13 06:37:43;;;;;;;15.75;5.20;;;;;;;;;;5025708;28;20046;-86
2022/08/13 06:40:24;;;;;;;20.00;4.97;;;;;;;;;;5043394;28;20072;-86
2022/08/13 06:43:06;;;;;;;21.98;5.13;;;;;;;;;;5030200;28;20539;-86
2022/08/13 06:45:36;;;;;;;10.40;3.83;;;;;;;;;;5026357;28;20049;-86
2022/08/13 06:51:20;;;;;;;13.85;3.88;;;;;;;;;;5024466;28;20045;-86
2022/08/13 06:53:48;;;;;;;14.07;3.92;;;;;;;;;;5024225;28;20057;-86
2022/08/13 06:56:36;;;;;;;7.55;3.42;;;;;;;;;;5028536;28;20111;-86
2022/08/13 06:59:07;;;;;;;8.52;2.95;;;;;;;;;;5026448;28;20045;-86
2022/08/13 07:01:43;;;;;;;8.55;3.45;;;;;;;;;;5028236;28;20049;-84
2022/08/13 07:04:30;;;;;;;6.57;3.28;;;;;;;;;;5026614;28;20045;-86
2022/08/13 07:06:59;;;;;;;9.35;3.20;;;;;;;;;;5024825;28;20059;-86
2022/08/13 07:09:28;;;;;;;7.28;2.90;;;;;;;;;;5025085;28;20103;-87
2022/08/13 07:12:07;;;;;;;12.18;2.85;;;;;;;;;;5026239;28;20053;-85
2022/08/13 07:14:36;;;;;;;5.63;2.60;;;;;;;;;;5028104;28;20121;-86
2022/08/13 07:17:03;;;;;;;4.70;2.50;;;;;;;;;;5031072;28;20411;-87
2022/08/13 07:19:34;;;;;;;4.07;2.90;;;;;;;;;;5030455;28;20050;-87
2022/08/13 07:22:23;;;;;;;6.82;2.58;;;;;;;;;;5030772;28;20049;-86
2022/08/13 07:25:11;;;;;;;3.78;2.22;;;;;;;;;;5035030;28;20056;-86
2022/08/13 07:27:40;;;;;;;4.78;2.45;;;;;;;;;;5029709;28;20084;-85
2022/08/13 07:30:14;;;;;;;5.88;2.10;;;;;;;;;;5029155;28;20053;-85
2022/08/13 07:32:42;;;;;;;3.03;2.08;;;;;;;;;;5027319;28;20046;-86
2022/08/13 07:35:11;;;;;;;5.78;2.30;;;;;;;;;;5027677;28;20053;-88
2022/08/13 07:37:44;;;;;;;;;;;;;;;;;;5024625;28;20052;-86
2022/08/13 07:40:19;;;;;;;5.88;1.85;;;;;;;;;;5025939;28;19971;-87
2022/08/13 07:42:49;;;;;;;5.45;2.00;;;;;;;;;;5026931;28;20053;-85
2022/08/13 07:45:23;;;;;;;3.58;1.70;;;;;;;;;;5026463;28;20121;-86
2022/08/13 07:48:10;;;;;;;3.20;1.50;;;;;;;;;;5023994;28;20049;-87
2022/08/13 07:50:58;;;;;;;2.88;1.50;;;;;;;;;;5026215;28;20132;-89
2022/08/13 07:53:34;;;;;;;;;;;;;;;;;;5027406;28;20070;-87
2022/08/13 07:56:21;;;;;;;2.67;1.42;;;;;;;;;;5025193;28;20003;-87
2022/08/13 07:58:55;;;;;;;1.83;1.30;;;;;;;;;;5028744;28;20061;-86
2022/08/13 08:01:22;;;;;;;2.72;1.17;;;;;;;;;;5028239;28;20049;-85
2022/08/13 08:03:52;;;;;;;2.95;1.00;;;;;;;;;;5043731;28;20048;-86
2022/08/13 08:06:20;;;;;;;2.15;1.23;;;;;;;;;;5027515;28;20051;-88
2022/08/13 08:08:57;;;;;;;2.15;1.40;;;;;;;;;;5041178;28;20079;-86
2022/08/13 08:14:18;;;;;;;1.83;1.40;;;;;;;;;;5041310;28;20117;-86
2022/08/13 08:17:01;;;;;;;2.58;1.10;;;;;;;;;;5027984;28;20050;-87
2022/08/13 08:19:50;;;;;;;3.55;1.20;;;;;;;;;;5025388;28;20113;-87
2022/08/13 08:22:39;;;;;;;3.53;1.10;;;;;;;;;;5022470;28;20096;-86
2022/08/13 08:25:10;;;;;;;1.30;1.20;;;;;;;;;;5021752;28;20050;-88
2022/08/13 08:27:47;;;;;;;3.63;1.52;;;;;;;;;;5018107;28;20050;-87
2022/08/13 08:30:37;;;;;;;5.20;1.23;;;;;;;;;;5016519;28;20046;-88
2022/08/13 08:33:18;;;;;;;1.20;1.10;;;;;;;;;;5019784;28;20052;-87
2022/08/13 08:36:06;;;;;;;4.30;1.10;;;;;;;;;;5017278;28;20133;-87
2022/08/13 08:44:16;;;;;;;2.58;1.10;;;;;;;;;;5015153;28;20483;-87
2022/08/13 08:46:44;;;;;;;3.08;1.63;;;;;;;;;;5017128;28;20046;-87
2022/08/13 08:49:16;;;;;;;1.40;1.30;;;;;;;;;;5015803;28;20042;-89
2022/08/13 08:52:06;;;;;;;4.00;1.30;;;;;;;;;;5018032;28;20073;-86
2022/08/13 08:54:35;;;;;;;1.65;1.17;;;;;;;;;;5015291;28;20077;-87
2022/08/13 08:57:04;;;;;;;1.10;1.08;;;;;;;;;;5014668;28;20464;-88
2022/08/13 08:59:35;;;;;;;1.58;1.20;;;;;;;;;;5014771;28;20068;-90
2022/08/13 09:02:19;;;;;;;1.30;1.20;;;;;;;;;;5017805;28;20411;-86
2022/08/13 09:04:54;;;;;;;6.35;1.52;;;;;;;;;;5015063;28;20416;-88
2022/08/13 09:07:29;;;;;;;0.93;0.90;;;;;;;;;;5013796;28;20057;-89
2022/08/13 09:09:57;;;;;;;3.22;1.35;;;;;;;;;;5013798;28;20132;-89
2022/08/13 09:12:29;;;;;;;2.00;1.30;;;;;;;;;;5014411;28;20046;-89
2022/08/13 09:14:59;;;;;;;0.90;0.80;;;;;;;;;;5013298;28;20073;-88
2022/08/13 09:17:27;;;;;;;1.00;1.00;;;;;;;;;;5014461;28;20100;-88
2022/08/13 09:20:12;;;;;;;4.07;0.98;;;;;;;;;;5014614;28;20479;-85
2022/08/13 09:22:44;;;;;;;5.78;1.08;;;;;;;;;;5014377;28;20137;-89
2022/08/13 09:25:22;;;;;;;5.57;1.00;;;;;;;;;;5013905;28;20048;-85
2022/08/13 09:27:51;;;;;;;3.45;0.90;;;;;;;;;;5013332;28;20050;-84
2022/08/13 09:30:39;;;;;;;2.35;0.95;;;;;;;;;;5013408;28;20534;-87
2022/08/13 09:33:12;;;;;;;2.78;1.00;;;;;;;;;;5013315;28;20050;-84
2022/08/13 09:36:02;;;;;;;1.30;0.90;;;;;;;;;;5016854;28;20050;-86
2022/08/13 09:38:31;;;;;;;2.20;0.90;;;;;;;;;;5017759;28;20058;-88
2022/08/13 09:41:25;;;;;;;1.80;0.80;;;;;;;;;;5016414;28;20057;-86
2022/08/13 09:43:56;;;;;;;5.25;0.95;;;;;;;;;;5013876;28;20107;-86
2022/08/13 09:46:24;;;;;;;3.15;1.25;;;;;;;;;;5017154;28;20050;-87
2022/08/13 09:48:56;;;;;;;2.38;0.80;;;;;;;;;;5017437;28;20101;-85
2022/08/13 09:51:34;;;;;;;0.77;0.77;;;;;;;;;;5016309;28;20077;-84
2022/08/13 09:54:24;;;;;;;3.22;1.17;;;;;;;;;;5016431;28;20515;-85
2022/08/13 09:56:57;;;;;;;3.10;1.60;;;;;;;;;;5016657;28;20061;-89
2022/08/13 09:59:26;;;;;;;0.95;0.77;;;;;;;;;;5015411;28;20058;-86
2022/08/13 10:01:58;;;;;;;;;;;;;;;;;;5018065;28;20046;-88
2022/08/13 10:04:27;;;;;;;1.10;0.90;;;;;;;;;;5016839;28;19921;-87
2022/08/13 10:06:57;;;;;;;1.20;0.90;;;;;;;;;;5016306;28;20054;-85
2022/08/13 10:09:37;;;;;;;0.80;0.80;;;;;;;;;;5015835;28;20049;-87
2022/08/13 10:12:22;;;;;;;1.40;0.80;;;;;;;;;;5016482;28;20451;-85
2022/08/13 10:14:50;;;;;;;5.97;0.80;;;;;;;;;;5016193;28;20136;-84
2022/08/13 10:17:24;;;;;;;2.13;0.70;;;;;;;;;;5015181;28;20046;-85
2022/08/13 10:20:12;;;;;;;0.85;0.85;;;;;;;;;;5015626;28;20566;-84
2022/08/13 10:22:42;;;;;;;1.77;0.60;;;;;;;;;;5017093;28;20060;-86
2022/08/13 10:25:10;;;;;;;3.28;0.80;;;;;;;;;;5017075;28;20089;-88
2022/08/13 10:27:38;;;;;;;2.30;0.68;;;;;;;;;;5015823;28;20462;-86
2022/08/13 10:30:17;;;;;;;5.20;0.68;;;;;;;;;;5015324;28;20053;-86
2022/08/13 10:33:04;;;;;;;0.77;0.77;;;;;;;;;;5015326;28;20078;-85
2022/08/13 10:35:32;;;;;;;2.05;0.75;;;;;;;;;;5015051;28;20050;-86
2022/08/13 10:38:07;;;;;;;;;;;;;;;;;;5016253;28;20058;-86
2022/08/13 10:40:35;;;;;;;2.42;1.20;;;;;;;;;;5015211;28;19929;-87
2022/08/13 10:43:05;;;;;;;4.93;0.90;;;;;;;;;;5015520;28;20561;-86
2022/08/13 10:45:59;;;;;;;3.88;1.20;;;;;;;;;;5014843;28;20427;-86
2022/08/13 10:48:36;;;;;;;3.50;1.02;;;;;;;;;;5015405;28;20046;-87
2022/08/13 10:51:04;;;;;;;7.50;1.50;;;;;;;;;;5015501;28;20046;-84
2022/08/13 10:56:24;;;;;;;2.53;1.05;;;;;;;;;;5015734;28;20500;-87
2022/08/13 10:58:54;;;;;;;1.10;1.10;;;;;;;;;;5015932;28;20050;-86
2022/08/13 11:01:23;;;;;;;3.03;1.10;;;;;;;;;;5015673;28;20046;-85
2022/08/13 11:03:57;;;;;;;1.23;1.08;;;;;;;;;;5016492;28;20064;-85
2022/08/13 11:06:33;;;;;;;1.80;1.00;;;;;;;;;;5014561;28;20052;-86
2022/08/13 11:09:03;;;;;;;4.22;1.05;;;;;;;;;;5015534;28;20085;-86
2022/08/13 11:11:50;;;;;;;1.00;1.00;;;;;;;;;;5015836;28;20137;-84
2022/08/13 11:14:41;;;;;;;1.60;1.00;;;;;;;;;;5014988;28;20046;-88
2022/08/13 11:17:11;;;;;;;2.38;1.02;;;;;;;;;;5017538;28;20041;-84
2022/08/13 11:20:06;;;;;;;2.78;1.00;;;;;;;;;;5015930;28;20462;-85
2022/08/13 11:22:35;;;;;;;1.50;1.40;;;;;;;;;;5014962;28;20068;-87
2022/08/13 11:25:03;;;;;;;1.73;1.48;;;;;;;;;;5014648;28;20077;-87
2022/08/13 11:27:52;;;;;;;2.70;1.05;;;;;;;;;;5015137;28;20137;-85
2022/08/13 11:30:20;;;;;;;2.30;1.10;;;;;;;;;;5013923;28;20050;-84
2022/08/13 11:33:03;;;;;;;;;;;;;;;;;;5015493;28;20053;-84
2022/08/13 11:35:32;;;;;;;1.30;1.10;;;;;;;;;;5014899;28;19944;-87
2022/08/13 11:38:05;;;;;;;1.90;1.20;;;;;;;;;;5015587;28;20069;-86
2022/08/13 11:40:33;;;;;;;;;;;;;;;;;;5015314;28;20050;-86
2022/08/13 11:43:01;;;;;;;2.05;1.13;;;;;;;;;;5014179;28;19921;-85
2022/08/13 11:45:39;;;;;;;3.80;1.25;;;;;;;;;;5014385;28;20054;-85
2022/08/13 11:48:13;;;;;;;4.22;1.20;;;;;;;;;;5013855;28;20053;-85
2022/08/13 11:50:49;;;;;;;4.53;1.35;;;;;;;;;;5013349;28;20045;-86
2022/08/13 11:53:18;;;;;;;1.40;1.30;;;;;;;;;;5014974;28;20046;-87
2022/08/13 11:55:51;;;;;;;2.03;1.05;;;;;;;;;;5016054;28;20053;-84
2022/08/13 11:58:28;;;;;;;3.03;1.30;;;;;;;;;;5011464;28;20049;-88
2022/08/13 12:01:16;;;;;;;1.23;1.13;;;;;;;;;;5013470;28;20064;-83
2022/08/13 12:03:51;;;;;;;5.30;1.25;;;;;;;;;;5013197;28;20053;-84
2022/08/13 12:06:38;;;;;;;3.90;1.27;;;;;;;;;;5012278;28;20088;-86
2022/08/13 12:09:06;;;;;;;2.08;1.35;;;;;;;;;;5013220;28;20042;-85
2022/08/13 12:11:55;;;;;;;5.30;1.40;;;;;;;;;;5012947;28;20046;-87
2022/08/13 12:14:36;;;;;;;5.00;1.50;;;;;;;;;;5012972;28;20137;-86
2022/08/13 12:17:03;;;;;;;1.50;1.40;;;;;;;;;;5013158;28;20096;-87
2022/08/13 12:19:31;;;;;;;6.95;1.95;;;;;;;;;;5013303;28;20049;-87
2022/08/13 12:22:00;;;;;;;3.63;1.70;;;;;;;;;;5014120;28;20474;-85
2022/08/13 12:24:28;;;;;;;6.82;1.60;;;;;;;;;;5013933;28;20050;-84
2022/08/13 12:27:01;;;;;;;4.60;1.52;;;;;;;;;;5013080;28;20054;-86
2022/08/13 12:29:31;;;;;;;2.30;1.83;;;;;;;;;;5013393;28;20470;-83
2022/08/13 12:32:14;;;;;;;5.13;1.83;;;;;;;;;;5014318;28;20050;-85
2022/08/13 12:34:43;;;;;;;3.78;2.25;;;;;;;;;;5014125;28;20046;-84
2022/08/13 12:37:20;;;;;;;2.17;1.77;;;;;;;;;;5014254;28;20065;-85
2022/08/13 12:39:56;;;;;;;2.10;1.90;;;;;;;;;;5014616;28;20136;-87
2022/08/13 12:42:25;;;;;;;2.83;1.90;;;;;;;;;;5013566;28;20126;-87
2022/08/13 12:44:55;;;;;;;3.40;1.60;;;;;;;;;;5015444;28;20065;-87
2022/08/13 12:47:44;;;;;;;3.03;2.08;;;;;;;;;;5014854;28;20060;-85
2022/08/13 12:50:16;;;;;;;4.10;1.88;;;;;;;;;;5013490;28;20169;-85
2022/08/13 12:52:50;;;;;;;5.65;2.03;;;;;;;;;;5013879;28;20054;-85
2022/08/13 12:55:31;;;;;;;3.47;2.05;;;;;;;;;;5012661;28;20069;-86
2022/08/13 12:58:16;;;;;;;2.13;2.00;;;;;;;;;;5014992;28;20077;-87
2022/08/13 13:00:51;;;;;;;5.40;2.47;;;;;;;;;;5014700;28;20069;-85
2022/08/13 13:03:27;;;;;;;2.00;1.90;;;;;;;;;;5013572;28;20049;-82
2022/08/13 13:06:04;;;;;;;2.45;2.28;;;;;;;;;;5013793;28;20077;-86
2022/08/13 13:08:34;;;;;;;2.92;1.92;;;;;;;;;;5016247;28;20050;-83
2022/08/13 13:11:05;;;;;;;3.63;2.65;;;;;;;;;;5017087;28;20129;-85
2022/08/13 13:13:43;;;;;;;2.30;2.10;;;;;;;;;;5019721;28;20049;-86
2022/08/13 13:16:31;;;;;;;2.78;2.58;;;;;;;;;;5017959;28;20113;-84
2022/08/13 13:19:04;;;;;;;3.35;2.88;;;;;;;;;;5017732;28;20119;-88
2022/08/13 13:21:43;;;;;;;3.35;3.05;;;;;;;;;;5018058;28;20129;-84
2022/08/13 13:24:13;;;;;;;3.30;3.10;;;;;;;;;;5017918;28;20095;-86
2022/08/13 13:26:50;;;;;;;3.35;3.17;;;;;;;;;;5017129;28;20069;-84
2022/08/13 13:29:36;;;;;;;3.30;3.10;;;;;;;;;;5016623;28;20072;-85
2022/08/13 13:32:05;;;;;;;3.28;3.08;;;;;;;;;;5017413;28;20569;-89
2022/08/13 13:34:52;;;;;;;3.28;2.97;;;;;;;;;;5018255;28;20045;-87
2022/08/13 13:37:27;;;;;;;3.45;3.20;;;;;;;;;;5017689;28;20132;-85
2022/08/13 13:40:16;;;;;;;5.18;3.97;;;;;;;;;;5017453;28;20137;-87
2022/08/13 13:42:44;;;;;;;3.55;3.35;;;;;;;;;;5017054;28;20050;-87
2022/08/13 13:45:31;;;;;;;3.58;3.30;;;;;;;;;;5016333;28;20137;-85
2022/08/13 13:48:23;;;;;;;3.65;3.45;;;;;;;;;;5016807;28;20541;-85
2022/08/13 13:50:52;;;;;;;3.35;3.13;;;;;;;;;;5018146;28;20045;-86
2022/08/13 13:53:24;;;;;;;3.97;3.67;;;;;;;;;;5017832;28;20496;-86
2022/08/13 13:56:13;;;;;;;3.55;3.30;;;;;;;;;;5017007;28;20129;-87
2022/08/13 13:58:48;;;;;;;3.80;3.50;;;;;;;;;;5017241;28;20069;-88
2022/08/13 14:01:25;;;;;;;4.35;3.97;;;;;;;;;;5019095;28;20052;-86
2022/08/13 14:04:12;;;;;;;5.38;3.80;;;;;;;;;;5016109;28;20054;-83
2022/08/13 14:06:40;;;;;;;4.72;4.20;;;;;;;;;;5015659;28;20049;-88
2022/08/13 14:09:09;;;;;;;6.28;3.50;;;;;;;;;;5015342;28;20104;-86
2022/08/13 14:11:42;;;;;;;6.18;4.70;;;;;;;;;;5016203;28;20492;-87
2022/08/13 14:14:19;;;;;;;3.97;3.67;;;;;;;;;;5016352;28;20140;-84
2022/08/13 14:16:52;;;;;;;6.97;3.97;;;;;;;;;;5016765;28;20049;-86
2022/08/13 14:19:21;;;;;;;4.35;3.90;;;;;;;;;;5017510;28;20077;-86
2022/08/13 14:22:08;;;;;;;4.07;3.80;;;;;;;;;;5016026;28;20080;-84
2022/08/13 14:24:40;;;;;;;4.15;3.80;;;;;;;;;;5016101;28;20057;-87
2022/08/13 14:27:13;;;;;;;4.20;3.90;;;;;;;;;;5014683;28;20065;-85
2022/08/13 14:29:46;;;;;;;3.90;3.60;;;;;;;;;;5015912;28;20080;-87
2022/08/13 14:32:19;;;;;;;4.22;3.83;;;;;;;;;;5014716;28;20511;-86
2022/08/13 14:34:50;;;;;;;3.97;3.67;;;;;;;;;;5015334;28;20072;-86
2022/08/13 14:37:25;;;;;;;5.63;4.00;;;;;;;;;;5014429;28;20046;-88
2022/08/13 14:40:00;;;;;;;4.10;3.90;;;;;;;;;;5015521;28;20053;-84
2022/08/13 14:42:32;;;;;;;4.00;3.80;;;;;;;;;;5014662;28;20050;-85
2022/08/13 14:48:31;;;;;;;5.95;3.60;;;;;;;;;;5015361;28;20046;-87
2022/08/13 14:51:03;;;;;;;5.70;4.53;;;;;;;;;;4998424;28;20061;-87
2022/08/13 14:53:51;;;;;;;4.88;4.47;;;;;;;;;;5015425;28;20060;-84
2022/08/13 14:56:20;;;;;;;4.38;4.05;;;;;;;;;;5014756;28;20049;-86
2022/08/13 14:58:57;;;;;;;36.15;6.15;;;;;;;;;;5015927;28;20046;-87
2022/08/13 15:01:25;;;;;;;6.97;3.92;;;;;;;;;;5016386;28;20136;-87
2022/08/13 15:03:54;;;;;;;7.60;3.33;;;;;;;;;;5014863;28;20042;-88
2022/08/13 15:06:23;;;;;;;3.70;3.40;;;;;;;;;;5014375;28;20088;-87
2022/08/13 15:09:01;;;;;;;3.60;3.35;;;;;;;;;;5015484;28;20046;-85
2022/08/13 15:11:29;;;;;;;6.93;3.05;;;;;;;;;;5015000;28;20050;-84
2022/08/13 15:13:56;;;;;;;3.20;3.00;;;;;;;;;;5015759;28;20051;-86
2022/08/13 15:16:26;;;;;;;7.45;3.72;;;;;;;;;;5014981;28;20100;-88
2022/08/13 15:19:08;;;;;;;3.20;3.00;;;;;;;;;;5016518;28;20060;-85
2022/08/13 15:21:44;;;;;;;4.32;3.05;;;;;;;;;;4999485;28;20079;-85
2022/08/13 15:24:28;;;;;;;4.07;3.05;;;;;;;;;;5016599;28;20073;-87
2022/08/13 15:27:08;;;;;;;6.32;3.75;;;;;;;;;;5015881;28;20061;-88
2022/08/13 15:29:38;;;;;;;6.05;3.00;;;;;;;;;;5014637;28;20053;-88
2022/08/13 15:32:11;;;;;;;4.28;3.28;;;;;;;;;;4999752;28;20084;-87
2022/08/13 15:34:40;;;;;;;3.05;2.85;;;;;;;;;;5015623;28;20046;-85
2022/08/13 15:37:13;;;;;;;3.58;3.22;;;;;;;;;;5019458;28;20072;-85
2022/08/13 15:39:50;;;;;;;3.42;3.05;;;;;;;;;;5016444;28;20061;-86
2022/08/13 15:42:19;;;;;;;8.68;3.83;;;;;;;;;;5013968;28;20571;-86
2022/08/13 15:44:50;;;;;;;5.88;3.22;;;;;;;;;;5013778;28;20107;-87
2022/08/13 15:47:22;;;;;;;32.65;5.30;;;;;;;;;;5014055;28;20111;-86
2022/08/13 15:49:52;;;;;;;4.13;3.72;;;;;;;;;;5013229;28;20478;-85
2022/08/13 15:52:21;;;;;;;4.55;3.30;;;;;;;;;;5014601;28;20076;-86
2022/08/13 15:54:49;;;;;;;12.73;3.78;;;;;;;;;;5013851;28;20132;-87
2022/08/13 15:57:21;;;;;;;6.90;3.75;;;;;;;;;;5013865;28;20076;-84
2022/08/13 15:59:49;;;;;;;13.70;3.72;;;;;;;;;;5015542;28;20053;-87
2022/08/13 16:02:19;;;;;;;11.02;3.78;;;;;;;;;;5014044;28;20462;-86
2022/08/13 16:05:08;;;;;;;4.20;3.55;;;;;;;;;;5014338;28;20061;-87
2022/08/13 16:07:41;;;;;;;4.00;3.55;;;;;;;;;;5014180;28;20419;-86
2022/08/13 16:10:20;;;;;;;34.63;5.40;;;;;;;;;;5013298;28;20042;-86